sensor_id;sensor_type;location;lat;lon;timestamp;P1;durP1;ratioP1;P2;durP2;ratioP2
2452;SDS011;63678;47.994;7.854;2023-08-20T00:02:21;12.27;;;9.07;;
2452;SDS011;63678;47.994;7.854;2023-08-20T00:04:56;11.75;;;8.68;;
2452;SDS011;63678;47.994;7.854;2023-08-20T00:07:33;15.00;;;9.07;;
2452;SDS011;63678;47.994;7.854;2023-08-20T00:10:06;12.52;;;9.15;;
2452;SDS011;63678;47.994;7.854;2023-08-20T00:12:39;14.25;;;8.93;;
2452;SDS011;63678;47.994;7.854;2023-08-20T00:15:11;13.00;;;9.35;;
2452;SDS011;63678;47.994;7.854;2023-08-20T00:17:44;11.73;;;9.40;;
2452;SDS011;63678;47.994;7.854;2023-08-20T00:20:17;14.13;;;8.83;;
2452;SDS011;63678;47.994;7.854;2023-08-20T00:22:50;11.73;;;8.70;;
2452;SDS011;63678;47.994;7.854;2023-08-20T00:25:24;13.85;;;8.85;;
2452;SDS011;63678;47.994;7.854;2023-08-20T00:27:57;11.90;;;8.23;;
2452;SDS011;63678;47.994;7.854;2023-08-20T00:30:30;11.68;;;8.18;;
2452;SDS011;63678;47.994;7.854;2023-08-20T00:33:02;13.87;;;8.20;;
2452;SDS011;63678;47.994;7.854;2023-08-20T00:35:35;11.77;;;8.63;;
2452;SDS011;63678;47.994;7.854;2023-08-20T00:38:07;13.48;;;8.77;;
2452;SDS011;63678;47.994;7.854;2023-08-20T00:40:39;13.30;;;8.98;;
2452;SDS011;63678;47.994;7.854;2023-08-20T00:43:12;11.25;;;8.40;;
2452;SDS011;63678;47.994;7.854;2023-08-20T00:45:44;14.47;;;7.90;;
2452;SDS011;63678;47.994;7.854;2023-08-20T00:48:17;12.82;;;8.50;;
2452;SDS011;63678;47.994;7.854;2023-08-20T00:50:50;13.70;;;8.50;;
2452;SDS011;63678;47.994;7.854;2023-08-20T00:53:22;13.43;;;8.40;;
2452;SDS011;63678;47.994;7.854;2023-08-20T00:55:58;13.05;;;8.43;;
2452;SDS011;63678;47.994;7.854;2023-08-20T00:58:31;14.30;;;8.10;;
2452;SDS011;63678;47.994;7.854;2023-08-20T01:01:03;15.02;;;9.18;;
2452;SDS011;63678;47.994;7.854;2023-08-20T01:03:36;10.77;;;8.23;;
2452;SDS011;63678;47.994;7.854;2023-08-20T01:06:12;13.50;;;8.65;;
2452;SDS011;63678;47.994;7.854;2023-08-20T01:09:27;11.00;;;8.73;;
2452;SDS011;63678;47.994;7.854;2023-08-20T01:12:09;11.40;;;8.20;;
2452;SDS011;63678;47.994;7.854;2023-08-20T01:14:42;11.70;;;8.65;;
2452;SDS011;63678;47.994;7.854;2023-08-20T01:17:14;11.73;;;8.85;;
2452;SDS011;63678;47.994;7.854;2023-08-20T01:19:47;12.85;;;8.43;;
2452;SDS011;63678;47.994;7.854;2023-08-20T01:28:38;11.77;;;8.90;;
2452;SDS011;63678;47.994;7.854;2023-08-20T01:31:01;14.63;;;9.70;;
2452;SDS011;63678;47.994;7.854;2023-08-20T01:33:35;15.73;;;8.80;;
2452;SDS011;63678;47.994;7.854;2023-08-20T01:36:08;13.38;;;9.23;;
2452;SDS011;63678;47.994;7.854;2023-08-20T01:38:45;11.20;;;8.03;;
2452;SDS011;63678;47.994;7.854;2023-08-20T01:41:17;12.88;;;8.75;;
2452;SDS011;63678;47.994;7.854;2023-08-20T01:43:50;12.40;;;8.13;;
2452;SDS011;63678;47.994;7.854;2023-08-20T01:46:22;15.48;;;8.65;;
2452;SDS011;63678;47.994;7.854;2023-08-20T01:48:55;14.27;;;8.80;;
2452;SDS011;63678;47.994;7.854;2023-08-20T01:51:27;11.73;;;8.80;;
2452;SDS011;63678;47.994;7.854;2023-08-20T01:54:00;15.05;;;8.95;;
2452;SDS011;63678;47.994;7.854;2023-08-20T01:56:33;17.52;;;8.57;;
2452;SDS011;63678;47.994;7.854;2023-08-20T01:59:05;13.25;;;9.30;;
2452;SDS011;63678;47.994;7.854;2023-08-20T02:01:38;14.60;;;9.48;;
2452;SDS011;63678;47.994;7.854;2023-08-20T02:04:11;15.00;;;9.60;;
2452;SDS011;63678;47.994;7.854;2023-08-20T02:06:44;14.07;;;9.05;;
2452;SDS011;63678;47.994;7.854;2023-08-20T02:09:17;12.40;;;8.82;;
2452;SDS011;63678;47.994;7.854;2023-08-20T02:11:51;14.38;;;9.00;;
2452;SDS011;63678;47.994;7.854;2023-08-20T02:14:24;14.85;;;8.85;;
2452;SDS011;63678;47.994;7.854;2023-08-20T02:16:58;13.00;;;8.80;;
2452;SDS011;63678;47.994;7.854;2023-08-20T02:19:31;13.25;;;9.05;;
2452;SDS011;63678;47.994;7.854;2023-08-20T02:22:03;14.02;;;9.18;;
2452;SDS011;63678;47.994;7.854;2023-08-20T02:24:36;12.98;;;9.15;;
2452;SDS011;63678;47.994;7.854;2023-08-20T02:27:11;12.63;;;9.45;;
2452;SDS011;63678;47.994;7.854;2023-08-20T02:29:43;15.50;;;10.30;;
2452;SDS011;63678;47.994;7.854;2023-08-20T02:32:19;13.10;;;9.38;;
2452;SDS011;63678;47.994;7.854;2023-08-20T02:34:51;14.27;;;9.30;;
2452;SDS011;63678;47.994;7.854;2023-08-20T02:37:23;12.70;;;9.32;;
2452;SDS011;63678;47.994;7.854;2023-08-20T02:39:56;16.70;;;9.68;;
2452;SDS011;63678;47.994;7.854;2023-08-20T02:42:28;12.13;;;9.20;;
2452;SDS011;63678;47.994;7.854;2023-08-20T02:45:00;12.15;;;8.80;;
2452;SDS011;63678;47.994;7.854;2023-08-20T02:47:33;14.88;;;9.55;;
2452;SDS011;63678;47.994;7.854;2023-08-20T02:50:06;15.38;;;8.90;;
2452;SDS011;63678;47.994;7.854;2023-08-20T02:52:39;16.33;;;8.82;;
2452;SDS011;63678;47.994;7.854;2023-08-20T02:55:13;12.23;;;8.90;;
2452;SDS011;63678;47.994;7.854;2023-08-20T02:57:46;15.05;;;9.63;;
2452;SDS011;63678;47.994;7.854;2023-08-20T03:00:18;14.55;;;8.88;;
2452;SDS011;63678;47.994;7.854;2023-08-20T03:02:51;12.60;;;9.50;;
2452;SDS011;63678;47.994;7.854;2023-08-20T03:05:23;13.07;;;8.52;;
2452;SDS011;63678;47.994;7.854;2023-08-20T03:07:56;13.27;;;8.30;;
2452;SDS011;63678;47.994;7.854;2023-08-20T03:10:28;13.25;;;8.68;;
2452;SDS011;63678;47.994;7.854;2023-08-20T03:13:01;12.70;;;9.02;;
2452;SDS011;63678;47.994;7.854;2023-08-20T03:15:34;10.85;;;8.30;;
2452;SDS011;63678;47.994;7.854;2023-08-20T03:18:06;14.27;;;9.48;;
2452;SDS011;63678;47.994;7.854;2023-08-20T03:20:39;13.73;;;9.03;;
2452;SDS011;63678;47.994;7.854;2023-08-20T03:23:11;15.32;;;8.50;;
2452;SDS011;63678;47.994;7.854;2023-08-20T03:25:44;13.48;;;8.70;;
2452;SDS011;63678;47.994;7.854;2023-08-20T03:28:17;12.27;;;8.70;;
2452;SDS011;63678;47.994;7.854;2023-08-20T03:30:51;11.88;;;8.90;;
2452;SDS011;63678;47.994;7.854;2023-08-20T03:33:28;14.50;;;8.70;;
2452;SDS011;63678;47.994;7.854;2023-08-20T03:36:01;12.40;;;8.23;;
2452;SDS011;63678;47.994;7.854;2023-08-20T03:38:33;12.10;;;8.48;;
2452;SDS011;63678;47.994;7.854;2023-08-20T03:41:06;11.68;;;8.02;;
2452;SDS011;63678;47.994;7.854;2023-08-20T03:43:39;13.02;;;8.23;;
2452;SDS011;63678;47.994;7.854;2023-08-20T03:46:12;11.67;;;7.70;;
2452;SDS011;63678;47.994;7.854;2023-08-20T03:48:46;12.35;;;8.73;;
2452;SDS011;63678;47.994;7.854;2023-08-20T03:51:19;11.85;;;8.50;;
2452;SDS011;63678;47.994;7.854;2023-08-20T03:53:52;12.75;;;8.20;;
2452;SDS011;63678;47.994;7.854;2023-08-20T03:56:26;13.80;;;8.45;;
2452;SDS011;63678;47.994;7.854;2023-08-20T03:58:59;13.33;;;7.57;;
2452;SDS011;63678;47.994;7.854;2023-08-20T04:01:31;14.82;;;8.18;;
2452;SDS011;63678;47.994;7.854;2023-08-20T04:04:04;11.85;;;7.95;;
2452;SDS011;63678;47.994;7.854;2023-08-20T04:06:36;13.20;;;8.27;;
2452;SDS011;63678;47.994;7.854;2023-08-20T04:09:09;12.30;;;8.20;;
2452;SDS011;63678;47.994;7.854;2023-08-20T04:11:43;11.93;;;8.17;;
2452;SDS011;63678;47.994;7.854;2023-08-20T04:14:15;12.10;;;8.25;;
2452;SDS011;63678;47.994;7.854;2023-08-20T04:16:49;14.90;;;9.52;;
2452;SDS011;63678;47.994;7.854;2023-08-20T04:19:21;12.13;;;8.65;;
2452;SDS011;63678;47.994;7.854;2023-08-20T04:21:53;15.38;;;8.50;;
2452;SDS011;63678;47.994;7.854;2023-08-20T04:24:26;13.27;;;7.87;;
2452;SDS011;63678;47.994;7.854;2023-08-20T04:26:58;11.55;;;8.13;;
2452;SDS011;63678;47.994;7.854;2023-08-20T04:29:32;12.18;;;9.00;;
2452;SDS011;63678;47.994;7.854;2023-08-20T04:32:05;11.90;;;8.02;;
2452;SDS011;63678;47.994;7.854;2023-08-20T04:34:38;13.10;;;8.20;;
2452;SDS011;63678;47.994;7.854;2023-08-20T04:37:10;13.20;;;8.37;;
2452;SDS011;63678;47.994;7.854;2023-08-20T04:39:43;12.35;;;8.73;;
2452;SDS011;63678;47.994;7.854;2023-08-20T04:42:15;11.80;;;8.50;;
2452;SDS011;63678;47.994;7.854;2023-08-20T04:44:48;12.82;;;8.60;;
2452;SDS011;63678;47.994;7.854;2023-08-20T04:47:21;13.65;;;8.65;;
2452;SDS011;63678;47.994;7.854;2023-08-20T04:49:53;12.47;;;8.63;;
2452;SDS011;63678;47.994;7.854;2023-08-20T04:52:26;11.43;;;8.38;;
2452;SDS011;63678;47.994;7.854;2023-08-20T04:54:58;12.95;;;9.07;;
2452;SDS011;63678;47.994;7.854;2023-08-20T04:57:31;14.02;;;8.93;;
2452;SDS011;63678;47.994;7.854;2023-08-20T05:00:06;13.63;;;9.05;;
2452;SDS011;63678;47.994;7.854;2023-08-20T05:02:49;10.47;;;8.17;;
2452;SDS011;63678;47.994;7.854;2023-08-20T05:05:23;13.23;;;8.10;;
2452;SDS011;63678;47.994;7.854;2023-08-20T05:07:56;13.70;;;8.57;;
2452;SDS011;63678;47.994;7.854;2023-08-20T05:10:28;11.73;;;9.25;;
2452;SDS011;63678;47.994;7.854;2023-08-20T05:13:02;12.98;;;8.88;;
2452;SDS011;63678;47.994;7.854;2023-08-20T05:15:35;13.23;;;8.60;;
2452;SDS011;63678;47.994;7.854;2023-08-20T05:18:07;10.93;;;8.32;;
2452;SDS011;63678;47.994;7.854;2023-08-20T05:20:40;12.43;;;9.40;;
2452;SDS011;63678;47.994;7.854;2023-08-20T05:23:13;17.77;;;8.38;;
2452;SDS011;63678;47.994;7.854;2023-08-20T05:25:45;13.45;;;8.93;;
2452;SDS011;63678;47.994;7.854;2023-08-20T05:28:18;13.37;;;8.63;;
2452;SDS011;63678;47.994;7.854;2023-08-20T05:30:54;14.77;;;8.48;;
2452;SDS011;63678;47.994;7.854;2023-08-20T05:33:30;12.60;;;8.70;;
2452;SDS011;63678;47.994;7.854;2023-08-20T05:36:02;14.68;;;8.90;;
2452;SDS011;63678;47.994;7.854;2023-08-20T05:38:35;15.73;;;9.13;;
2452;SDS011;63678;47.994;7.854;2023-08-20T05:41:07;14.07;;;9.33;;
2452;SDS011;63678;47.994;7.854;2023-08-20T05:43:40;12.95;;;8.30;;
2452;SDS011;63678;47.994;7.854;2023-08-20T05:46:13;15.73;;;9.23;;
2452;SDS011;63678;47.994;7.854;2023-08-20T05:48:45;14.70;;;8.95;;
2452;SDS011;63678;47.994;7.854;2023-08-20T05:51:18;11.95;;;9.15;;
2452;SDS011;63678;47.994;7.854;2023-08-20T05:53:50;14.93;;;8.83;;
2452;SDS011;63678;47.994;7.854;2023-08-20T05:56:23;13.88;;;8.60;;
2452;SDS011;63678;47.994;7.854;2023-08-20T05:58:56;13.32;;;10.30;;
2452;SDS011;63678;47.994;7.854;2023-08-20T06:01:28;13.05;;;8.80;;
2452;SDS011;63678;47.994;7.854;2023-08-20T06:04:00;12.45;;;8.57;;
2452;SDS011;63678;47.994;7.854;2023-08-20T06:09:44;11.18;;;8.60;;
2452;SDS011;63678;47.994;7.854;2023-08-20T06:12:17;12.88;;;9.45;;
2452;SDS011;63678;47.994;7.854;2023-08-20T06:14:49;11.85;;;9.07;;
2452;SDS011;63678;47.994;7.854;2023-08-20T06:17:22;12.15;;;9.25;;
2452;SDS011;63678;47.994;7.854;2023-08-20T06:19:55;14.27;;;9.47;;
2452;SDS011;63678;47.994;7.854;2023-08-20T06:22:27;14.48;;;8.80;;
2452;SDS011;63678;47.994;7.854;2023-08-20T06:25:00;12.88;;;8.95;;
2452;SDS011;63678;47.994;7.854;2023-08-20T06:27:32;13.57;;;9.27;;
2452;SDS011;63678;47.994;7.854;2023-08-20T06:30:07;12.85;;;8.77;;
2452;SDS011;63678;47.994;7.854;2023-08-20T06:32:41;12.27;;;9.23;;
2452;SDS011;63678;47.994;7.854;2023-08-20T06:35:17;16.52;;;8.93;;
2452;SDS011;63678;47.994;7.854;2023-08-20T06:37:49;14.93;;;9.82;;
2452;SDS011;63678;47.994;7.854;2023-08-20T06:40:22;12.43;;;8.07;;
2452;SDS011;63678;47.994;7.854;2023-08-20T06:42:54;13.27;;;9.52;;
2452;SDS011;63678;47.994;7.854;2023-08-20T06:45:27;12.47;;;8.97;;
2452;SDS011;63678;47.994;7.854;2023-08-20T06:47:59;11.45;;;9.23;;
2452;SDS011;63678;47.994;7.854;2023-08-20T06:50:31;14.18;;;8.88;;
2452;SDS011;63678;47.994;7.854;2023-08-20T06:53:04;13.50;;;8.85;;
2452;SDS011;63678;47.994;7.854;2023-08-20T06:55:37;13.52;;;8.93;;
2452;SDS011;63678;47.994;7.854;2023-08-20T06:58:09;14.83;;;8.70;;
2452;SDS011;63678;47.994;7.854;2023-08-20T07:00:41;11.93;;;8.23;;
2452;SDS011;63678;47.994;7.854;2023-08-20T07:03:13;11.57;;;8.13;;
2452;SDS011;63678;47.994;7.854;2023-08-20T07:05:46;11.75;;;8.48;;
2452;SDS011;63678;47.994;7.854;2023-08-20T07:08:18;12.48;;;8.20;;
2452;SDS011;63678;47.994;7.854;2023-08-20T07:10:51;10.27;;;7.77;;
2452;SDS011;63678;47.994;7.854;2023-08-20T07:13:23;12.10;;;8.02;;
2452;SDS011;63678;47.994;7.854;2023-08-20T07:15:55;12.63;;;8.70;;
2452;SDS011;63678;47.994;7.854;2023-08-20T07:18:28;15.27;;;8.70;;
2452;SDS011;63678;47.994;7.854;2023-08-20T07:21:00;10.80;;;8.07;;
2452;SDS011;63678;47.994;7.854;2023-08-20T07:23:33;11.93;;;8.20;;
2452;SDS011;63678;47.994;7.854;2023-08-20T07:26:10;12.45;;;8.38;;
2452;SDS011;63678;47.994;7.854;2023-08-20T07:28:45;11.45;;;8.55;;
2452;SDS011;63678;47.994;7.854;2023-08-20T07:31:31;13.52;;;8.68;;
2452;SDS011;63678;47.994;7.854;2023-08-20T07:34:05;12.48;;;9.07;;
2452;SDS011;63678;47.994;7.854;2023-08-20T07:36:42;13.13;;;8.80;;
2452;SDS011;63678;47.994;7.854;2023-08-20T07:39:15;11.98;;;8.68;;
2452;SDS011;63678;47.994;7.854;2023-08-20T07:41:49;13.50;;;8.98;;
2452;SDS011;63678;47.994;7.854;2023-08-20T07:44:21;13.77;;;9.10;;
2452;SDS011;63678;47.994;7.854;2023-08-20T07:46:53;14.55;;;8.85;;
2452;SDS011;63678;47.994;7.854;2023-08-20T07:49:26;12.37;;;8.03;;
2452;SDS011;63678;47.994;7.854;2023-08-20T07:51:58;13.32;;;7.93;;
2452;SDS011;63678;47.994;7.854;2023-08-20T07:54:30;10.27;;;7.63;;
2452;SDS011;63678;47.994;7.854;2023-08-20T07:57:03;13.60;;;7.25;;
2452;SDS011;63678;47.994;7.854;2023-08-20T07:59:35;13.73;;;8.07;;
2452;SDS011;63678;47.994;7.854;2023-08-20T08:02:07;11.60;;;6.90;;
2452;SDS011;63678;47.994;7.854;2023-08-20T08:04:40;10.73;;;6.72;;
2452;SDS011;63678;47.994;7.854;2023-08-20T08:07:16;11.70;;;7.93;;
2452;SDS011;63678;47.994;7.854;2023-08-20T08:09:48;9.75;;;7.07;;
2452;SDS011;63678;47.994;7.854;2023-08-20T08:12:21;10.43;;;6.95;;
2452;SDS011;63678;47.994;7.854;2023-08-20T08:14:53;9.23;;;6.87;;
2452;SDS011;63678;47.994;7.854;2023-08-20T08:17:47;10.25;;;7.32;;
2452;SDS011;63678;47.994;7.854;2023-08-20T08:20:24;10.82;;;7.32;;
2452;SDS011;63678;47.994;7.854;2023-08-20T08:22:57;10.30;;;6.50;;
2452;SDS011;63678;47.994;7.854;2023-08-20T08:25:29;10.55;;;7.38;;
2452;SDS011;63678;47.994;7.854;2023-08-20T08:28:02;9.87;;;7.00;;
2452;SDS011;63678;47.994;7.854;2023-08-20T08:30:36;12.73;;;7.30;;
2452;SDS011;63678;47.994;7.854;2023-08-20T08:33:09;10.15;;;6.85;;
2452;SDS011;63678;47.994;7.854;2023-08-20T08:35:42;9.98;;;6.70;;
2452;SDS011;63678;47.994;7.854;2023-08-20T08:38:14;9.60;;;6.70;;
2452;SDS011;63678;47.994;7.854;2023-08-20T08:40:46;10.60;;;7.27;;
2452;SDS011;63678;47.994;7.854;2023-08-20T08:43:20;21.30;;;12.95;;
2452;SDS011;63678;47.994;7.854;2023-08-20T08:45:53;10.98;;;7.18;;
2452;SDS011;63678;47.994;7.854;2023-08-20T08:48:27;10.30;;;6.75;;
2452;SDS011;63678;47.994;7.854;2023-08-20T08:51:00;10.50;;;7.10;;
2452;SDS011;63678;47.994;7.854;2023-08-20T08:53:34;11.43;;;6.87;;
2452;SDS011;63678;47.994;7.854;2023-08-20T08:56:07;12.30;;;7.65;;
2452;SDS011;63678;47.994;7.854;2023-08-20T08:58:39;10.20;;;6.93;;
2452;SDS011;63678;47.994;7.854;2023-08-20T09:01:13;11.93;;;6.85;;
2452;SDS011;63678;47.994;7.854;2023-08-20T09:03:46;12.23;;;7.32;;
2452;SDS011;63678;47.994;7.854;2023-08-20T09:06:19;9.47;;;7.33;;
2452;SDS011;63678;47.994;7.854;2023-08-20T09:08:55;10.65;;;6.57;;
2452;SDS011;63678;47.994;7.854;2023-08-20T09:11:38;10.43;;;7.13;;
2452;SDS011;63678;47.994;7.854;2023-08-20T09:14:28;11.43;;;7.13;;
2452;SDS011;63678;47.994;7.854;2023-08-20T09:17:01;9.65;;;6.90;;
2452;SDS011;63678;47.994;7.854;2023-08-20T09:19:37;9.07;;;6.97;;
2452;SDS011;63678;47.994;7.854;2023-08-20T09:22:13;10.40;;;7.13;;
2452;SDS011;63678;47.994;7.854;2023-08-20T09:24:46;13.40;;;7.60;;
2452;SDS011;63678;47.994;7.854;2023-08-20T09:27:25;10.48;;;7.05;;
2452;SDS011;63678;47.994;7.854;2023-08-20T09:29:57;16.02;;;9.05;;
2452;SDS011;63678;47.994;7.854;2023-08-20T09:32:30;11.50;;;6.80;;
2452;SDS011;63678;47.994;7.854;2023-08-20T09:35:03;10.60;;;6.78;;
2452;SDS011;63678;47.994;7.854;2023-08-20T09:37:36;10.70;;;6.93;;
2452;SDS011;63678;47.994;7.854;2023-08-20T09:40:09;8.77;;;6.68;;
2452;SDS011;63678;47.994;7.854;2023-08-20T09:42:42;13.68;;;7.47;;
2452;SDS011;63678;47.994;7.854;2023-08-20T09:45:16;11.03;;;6.93;;
2452;SDS011;63678;47.994;7.854;2023-08-20T09:47:52;9.70;;;6.95;;
2452;SDS011;63678;47.994;7.854;2023-08-20T09:50:28;10.52;;;7.25;;
2452;SDS011;63678;47.994;7.854;2023-08-20T09:53:12;7.68;;;6.25;;
2452;SDS011;63678;47.994;7.854;2023-08-20T09:55:56;11.73;;;6.65;;
2452;SDS011;63678;47.994;7.854;2023-08-20T09:58:48;13.27;;;7.27;;
2452;SDS011;63678;47.994;7.854;2023-08-20T10:01:20;12.05;;;7.97;;
2452;SDS011;63678;47.994;7.854;2023-08-20T10:03:54;10.27;;;7.38;;
2452;SDS011;63678;47.994;7.854;2023-08-20T10:06:26;12.18;;;7.32;;
2452;SDS011;63678;47.994;7.854;2023-08-20T10:09:00;10.30;;;7.10;;
2452;SDS011;63678;47.994;7.854;2023-08-20T10:11:34;10.57;;;7.23;;
2452;SDS011;63678;47.994;7.854;2023-08-20T10:14:09;11.82;;;7.30;;
2452;SDS011;63678;47.994;7.854;2023-08-20T10:16:41;10.10;;;6.95;;
2452;SDS011;63678;47.994;7.854;2023-08-20T10:19:15;10.93;;;7.35;;
2452;SDS011;63678;47.994;7.854;2023-08-20T10:21:51;9.13;;;7.35;;
2452;SDS011;63678;47.994;7.854;2023-08-20T10:24:25;17.07;;;10.60;;
2452;SDS011;63678;47.994;7.854;2023-08-20T10:27:07;10.05;;;7.22;;
2452;SDS011;63678;47.994;7.854;2023-08-20T10:29:43;11.38;;;7.03;;
2452;SDS011;63678;47.994;7.854;2023-08-20T10:32:20;12.20;;;7.05;;
2452;SDS011;63678;47.994;7.854;2023-08-20T10:35:28;9.50;;;6.53;;
2452;SDS011;63678;47.994;7.854;2023-08-20T10:38:22;9.97;;;6.33;;
2452;SDS011;63678;47.994;7.854;2023-08-20T10:41:09;11.40;;;6.53;;
2452;SDS011;63678;47.994;7.854;2023-08-20T10:43:49;9.25;;;7.03;;
2452;SDS011;63678;47.994;7.854;2023-08-20T10:46:22;11.05;;;6.15;;
2452;SDS011;63678;47.994;7.854;2023-08-20T10:48:57;10.07;;;6.65;;
2452;SDS011;63678;47.994;7.854;2023-08-20T10:51:34;13.10;;;7.10;;
2452;SDS011;63678;47.994;7.854;2023-08-20T10:54:10;11.85;;;6.95;;
2452;SDS011;63678;47.994;7.854;2023-08-20T10:56:44;12.65;;;7.05;;
2452;SDS011;63678;47.994;7.854;2023-08-20T10:59:22;8.98;;;6.18;;
2452;SDS011;63678;47.994;7.854;2023-08-20T11:01:58;11.73;;;7.10;;
2452;SDS011;63678;47.994;7.854;2023-08-20T11:04:32;9.57;;;6.43;;
2452;SDS011;63678;47.994;7.854;2023-08-20T11:07:04;11.02;;;6.15;;
2452;SDS011;63678;47.994;7.854;2023-08-20T11:09:36;9.40;;;6.50;;
2452;SDS011;63678;47.994;7.854;2023-08-20T11:12:12;9.40;;;6.65;;
2452;SDS011;63678;47.994;7.854;2023-08-20T11:14:47;13.65;;;7.10;;
2452;SDS011;63678;47.994;7.854;2023-08-20T11:17:20;10.97;;;6.20;;
2452;SDS011;63678;47.994;7.854;2023-08-20T11:19:53;10.38;;;6.97;;
2452;SDS011;63678;47.994;7.854;2023-08-20T11:22:41;14.20;;;7.03;;
2452;SDS011;63678;47.994;7.854;2023-08-20T11:25:14;9.52;;;6.65;;
2452;SDS011;63678;47.994;7.854;2023-08-20T11:27:48;11.50;;;6.65;;
2452;SDS011;63678;47.994;7.854;2023-08-20T11:30:31;10.67;;;6.43;;
2452;SDS011;63678;47.994;7.854;2023-08-20T11:33:04;11.68;;;6.22;;
2452;SDS011;63678;47.994;7.854;2023-08-20T11:35:37;8.82;;;6.85;;
2452;SDS011;63678;47.994;7.854;2023-08-20T11:38:10;11.98;;;6.43;;
2452;SDS011;63678;47.994;7.854;2023-08-20T11:40:42;11.50;;;6.45;;
2452;SDS011;63678;47.994;7.854;2023-08-20T11:43:15;9.63;;;6.40;;
2452;SDS011;63678;47.994;7.854;2023-08-20T11:45:48;9.80;;;6.95;;
2452;SDS011;63678;47.994;7.854;2023-08-20T11:48:22;11.95;;;6.90;;
2452;SDS011;63678;47.994;7.854;2023-08-20T11:50:55;9.88;;;6.97;;
2452;SDS011;63678;47.994;7.854;2023-08-20T11:53:29;11.07;;;7.15;;
2452;SDS011;63678;47.994;7.854;2023-08-20T11:56:02;9.63;;;6.33;;
2452;SDS011;63678;47.994;7.854;2023-08-20T11:58:35;10.35;;;6.97;;
2452;SDS011;63678;47.994;7.854;2023-08-20T12:01:07;11.90;;;6.80;;
2452;SDS011;63678;47.994;7.854;2023-08-20T12:03:40;16.25;;;8.20;;
2452;SDS011;63678;47.994;7.854;2023-08-20T12:06:19;15.18;;;8.23;;
2452;SDS011;63678;47.994;7.854;2023-08-20T12:08:54;11.37;;;7.87;;
2452;SDS011;63678;47.994;7.854;2023-08-20T12:11:27;9.85;;;7.30;;
2452;SDS011;63678;47.994;7.854;2023-08-20T12:14:01;12.98;;;7.90;;
2452;SDS011;63678;47.994;7.854;2023-08-20T12:16:35;10.77;;;7.55;;
2452;SDS011;63678;47.994;7.854;2023-08-20T12:19:08;11.27;;;7.60;;
2452;SDS011;63678;47.994;7.854;2023-08-20T12:21:44;14.93;;;7.90;;
2452;SDS011;63678;47.994;7.854;2023-08-20T12:24:17;11.38;;;7.68;;
2452;SDS011;63678;47.994;7.854;2023-08-20T12:26:53;13.05;;;8.55;;
2452;SDS011;63678;47.994;7.854;2023-08-20T12:29:26;11.52;;;7.80;;
2452;SDS011;63678;47.994;7.854;2023-08-20T12:32:00;13.57;;;7.43;;
2452;SDS011;63678;47.994;7.854;2023-08-20T12:34:41;12.33;;;7.83;;
2452;SDS011;63678;47.994;7.854;2023-08-20T12:37:14;10.43;;;8.10;;
2452;SDS011;63678;47.994;7.854;2023-08-20T12:39:46;14.63;;;7.97;;
2452;SDS011;63678;47.994;7.854;2023-08-20T12:42:20;13.07;;;7.97;;
2452;SDS011;63678;47.994;7.854;2023-08-20T12:44:53;10.30;;;7.30;;
2452;SDS011;63678;47.994;7.854;2023-08-20T12:47:25;9.60;;;7.00;;
2452;SDS011;63678;47.994;7.854;2023-08-20T12:49:57;10.93;;;7.30;;
2452;SDS011;63678;47.994;7.854;2023-08-20T12:52:32;14.20;;;7.65;;
2452;SDS011;63678;47.994;7.854;2023-08-20T12:55:05;15.23;;;8.05;;
2452;SDS011;63678;47.994;7.854;2023-08-20T12:57:51;13.77;;;7.88;;
2452;SDS011;63678;47.994;7.854;2023-08-20T13:00:26;11.97;;;7.07;;
2452;SDS011;63678;47.994;7.854;2023-08-20T13:03:00;10.63;;;7.15;;
2452;SDS011;63678;47.994;7.854;2023-08-20T13:05:33;13.35;;;7.22;;
2452;SDS011;63678;47.994;7.854;2023-08-20T13:08:10;10.80;;;7.40;;
2452;SDS011;63678;47.994;7.854;2023-08-20T13:10:47;11.35;;;7.25;;
2452;SDS011;63678;47.994;7.854;2023-08-20T13:13:26;12.20;;;7.20;;
2452;SDS011;63678;47.994;7.854;2023-08-20T13:15:59;10.68;;;7.00;;
2452;SDS011;63678;47.994;7.854;2023-08-20T13:18:33;9.50;;;7.10;;
2452;SDS011;63678;47.994;7.854;2023-08-20T13:21:06;10.60;;;6.45;;
2452;SDS011;63678;47.994;7.854;2023-08-20T13:23:38;9.73;;;7.13;;
2452;SDS011;63678;47.994;7.854;2023-08-20T13:26:12;10.10;;;6.73;;
2452;SDS011;63678;47.994;7.854;2023-08-20T13:28:45;12.40;;;6.70;;
2452;SDS011;63678;47.994;7.854;2023-08-20T13:31:17;10.55;;;6.40;;
2452;SDS011;63678;47.994;7.854;2023-08-20T13:33:51;10.95;;;6.60;;
2452;SDS011;63678;47.994;7.854;2023-08-20T13:36:23;11.65;;;6.93;;
2452;SDS011;63678;47.994;7.854;2023-08-20T13:38:56;12.53;;;6.10;;
2452;SDS011;63678;47.994;7.854;2023-08-20T13:41:28;12.60;;;6.78;;
2452;SDS011;63678;47.994;7.854;2023-08-20T13:44:01;10.38;;;6.80;;
2452;SDS011;63678;47.994;7.854;2023-08-20T13:46:34;12.60;;;6.90;;
2452;SDS011;63678;47.994;7.854;2023-08-20T13:49:07;11.45;;;6.90;;
2452;SDS011;63678;47.994;7.854;2023-08-20T13:51:40;9.87;;;6.53;;
2452;SDS011;63678;47.994;7.854;2023-08-20T13:54:12;9.00;;;6.40;;
2452;SDS011;63678;47.994;7.854;2023-08-20T13:56:44;10.25;;;6.22;;
2452;SDS011;63678;47.994;7.854;2023-08-20T13:59:17;10.52;;;6.78;;
2452;SDS011;63678;47.994;7.854;2023-08-20T14:01:49;10.18;;;6.80;;
2452;SDS011;63678;47.994;7.854;2023-08-20T14:04:22;9.50;;;6.77;;
2452;SDS011;63678;47.994;7.854;2023-08-20T14:06:54;12.80;;;6.50;;
2452;SDS011;63678;47.994;7.854;2023-08-20T14:09:27;15.77;;;6.72;;
2452;SDS011;63678;47.994;7.854;2023-08-20T14:11:59;10.80;;;7.05;;
2452;SDS011;63678;47.994;7.854;2023-08-20T14:14:32;12.52;;;7.63;;
2452;SDS011;63678;47.994;7.854;2023-08-20T14:17:04;15.23;;;7.63;;
2452;SDS011;63678;47.994;7.854;2023-08-20T14:19:37;12.43;;;7.40;;
2452;SDS011;63678;47.994;7.854;2023-08-20T14:22:09;11.15;;;6.97;;
2452;SDS011;63678;47.994;7.854;2023-08-20T14:24:42;14.18;;;7.60;;
2452;SDS011;63678;47.994;7.854;2023-08-20T14:27:14;12.13;;;7.45;;
2452;SDS011;63678;47.994;7.854;2023-08-20T14:29:47;10.90;;;7.07;;
2452;SDS011;63678;47.994;7.854;2023-08-20T14:32:19;10.15;;;7.25;;
2452;SDS011;63678;47.994;7.854;2023-08-20T14:34:52;12.10;;;7.30;;
2452;SDS011;63678;47.994;7.854;2023-08-20T14:37:24;10.32;;;7.40;;
2452;SDS011;63678;47.994;7.854;2023-08-20T14:39:57;9.32;;;7.10;;
2452;SDS011;63678;47.994;7.854;2023-08-20T14:42:29;15.20;;;7.40;;
2452;SDS011;63678;47.994;7.854;2023-08-20T14:45:02;11.75;;;7.03;;
2452;SDS011;63678;47.994;7.854;2023-08-20T14:47:36;13.10;;;7.28;;
2452;SDS011;63678;47.994;7.854;2023-08-20T14:50:08;12.32;;;7.10;;
2452;SDS011;63678;47.994;7.854;2023-08-20T14:52:41;11.05;;;7.10;;
2452;SDS011;63678;47.994;7.854;2023-08-20T14:55:13;10.60;;;7.03;;
2452;SDS011;63678;47.994;7.854;2023-08-20T14:57:46;11.00;;;7.28;;
2452;SDS011;63678;47.994;7.854;2023-08-20T15:00:23;9.55;;;6.57;;
2452;SDS011;63678;47.994;7.854;2023-08-20T15:02:56;11.35;;;7.10;;
2452;SDS011;63678;47.994;7.854;2023-08-20T15:05:28;10.73;;;7.15;;
2452;SDS011;63678;47.994;7.854;2023-08-20T15:08:02;10.77;;;6.43;;
2452;SDS011;63678;47.994;7.854;2023-08-20T15:10:36;17.50;;;7.47;;
2452;SDS011;63678;47.994;7.854;2023-08-20T15:13:08;10.93;;;7.50;;
2452;SDS011;63678;47.994;7.854;2023-08-20T15:15:41;12.40;;;7.35;;
2452;SDS011;63678;47.994;7.854;2023-08-20T15:18:14;11.50;;;7.28;;
2452;SDS011;63678;47.994;7.854;2023-08-20T15:20:57;10.43;;;6.63;;
2452;SDS011;63678;47.994;7.854;2023-08-20T15:23:31;12.32;;;6.82;;
2452;SDS011;63678;47.994;7.854;2023-08-20T15:26:03;9.38;;;7.25;;
2452;SDS011;63678;47.994;7.854;2023-08-20T15:28:36;10.90;;;6.95;;
2452;SDS011;63678;47.994;7.854;2023-08-20T15:31:08;12.05;;;7.53;;
2452;SDS011;63678;47.994;7.854;2023-08-20T15:33:41;13.37;;;6.67;;
2452;SDS011;63678;47.994;7.854;2023-08-20T15:36:13;12.27;;;7.20;;
2452;SDS011;63678;47.994;7.854;2023-08-20T15:38:46;13.00;;;7.13;;